Latest Weather Observations for Hervey Bay

IDQ60801

Issued at 11:05 am EST Thursday 31 July 2014 (issued every 30 minutes, with the page automatically refreshed every 10 minutes)

About weather observations | Map of weather stations | Latest weather observations for QLD | Other Formats
Station Details ID: 040405 Name: HERVEY BAY AIRPORT Lat: -25.32 Lon: 152.88 Height: 12.98 m
Data from the previous 72 hours. | See also: Recent months at Hervey Bay
Date/Time
EST
Temp
°C
App
Temp
°C
Dew
Point
Rel
Hum
%
Delta-T
°C
Wind Press
QNH
hPa
Press
MSL
hPa
Rain
since 9 am
mm
Dir
 
Spd
km/h
Gust
km/h
Spd
kts
Gust
kts
31/11:00am 22.9 22.8 13.9 57 5.2 ENE 7 13 4 7 1021.1 - 0.0
31/10:30am 22.1 22.4 14.5 62 4.5 E 6 9 3 5 1021.6 - 0.0
31/10:00am 21.7 21.9 14.8 65 4.1 SW 7 11 4 6 1021.9 - 0.0
31/09:30am 19.5 19.3 14.7 74 2.8 SW 9 13 5 7 1022.3 - 0.0
31/09:00am 18.2 17.9 14.3 78 2.2 SW 9 11 5 6 1022.6 1022.5 0.0
31/08:30am 16.3 16.5 14.7 90 0.9 SSW 7 9 4 5 1022.3 - 0.0
31/08:04am 14.0 13.7 13.2 95 0.4 SSW 7 9 4 5 1022.1 - 0.0
31/08:00am 13.7 13.3 12.9 95 0.4 SSW 7 9 4 5 1022.1 - 0.0
31/07:46am 12.9 13.7 12.4 97 0.3 CALM 0 7 0 4 1021.9 - 0.0
31/07:30am 11.4 11.7 10.9 97 0.3 CALM 0 0 0 0 1021.7 - 0.0
31/07:00am 9.1 7.6 8.6 97 0.2 S 6 6 3 3 1021.4 - 0.0
31/06:51am 8.8 7.2 8.2 96 0.3 S 6 7 3 4 1021.3 - 0.0
31/06:50am 8.8 7.2 8.2 96 0.3 S 6 7 3 4 1021.3 - 0.0
31/06:30am 8.4 7.9 7.8 96 0.3 CALM 0 6 0 3 1021.2 - 0.0
31/06:23am 8.5 7.3 7.9 96 0.3 ESE 4 7 2 4 1021.2 - 0.0
31/06:03am 8.3 7.7 7.4 94 0.4 CALM 0 0 0 0 1020.9 - 0.0
31/06:00am 8.4 7.8 7.5 94 0.4 SW 0 0 0 0 1020.9 1020.8 0.0
31/05:32am 8.8 8.3 8.0 95 0.4 SW 0 0 0 0 1020.8 - 0.0
31/05:30am 8.8 8.3 8.0 95 0.4 CALM 0 0 0 0 1020.8 - 0.0
31/05:00am 9.4 9.1 8.8 96 0.3 CALM 0 0 0 0 1020.6 - 0.0
31/04:35am 10.1 10.1 9.8 98 0.2 CALM 0 0 0 0 1020.5 - 0.0
31/04:30am 10.6 10.7 10.3 98 0.2 CALM 0 0 0 0 1020.5 - 0.0
31/04:15am 11.0 8.8 10.7 98 0.2 SSW 13 19 7 10 1020.5 - 0.0
31/04:00am 9.3 9.0 8.5 95 0.4 CALM 0 0 0 0 1020.3 - 0.0
31/03:53am 9.3 9.0 8.7 96 0.3 CALM 0 0 0 0 1020.3 - 0.0
31/03:30am 9.5 9.3 8.9 96 0.3 CALM 0 0 0 0 1020.5 - 0.0
31/03:00am 9.6 9.3 8.8 95 0.4 CALM 0 0 0 0 1020.7 1020.6 0.0
31/02:30am 10.2 10.1 9.4 95 0.4 CALM 0 0 0 0 1020.8 - 0.0
31/02:00am 10.7 10.4 10.1 96 0.3 SW 2 7 1 4 1020.9 - 0.0
31/01:30am 10.7 10.3 9.9 95 0.4 S 2 9 1 5 1021.1 - 0.0
31/01:21am 11.6 11.2 11.1 97 0.3 S 4 9 2 5 1021.1 - 0.0
31/01:19am 11.5 10.7 10.9 96 0.3 S 6 9 3 5 1021.1 - 0.0
31/01:00am 11.4 10.5 10.8 96 0.3 SSW 6 9 3 5 1021.2 - 0.0
31/12:46am 11.7 10.8 11.2 97 0.3 SSW 7 9 4 5 1021.3 - 0.0
31/12:30am 12.0 11.2 11.7 98 0.2 SSW 7 7 4 4 1021.3 - 0.0
31/12:00am 9.6 8.1 8.4 92 0.6 WNW 6 7 3 4 1021.1 1021.0 0.0
 
Date/Time
EST
Temp
°C
App
Temp
°C
Dew
Point
Rel
Hum
%
Delta-T
°C
Wind Press
QNH
hPa
Press
MSL
hPa
Rain
since 9 am
mm
Dir
 
Spd
km/h
Gust
km/h
Spd
kts
Gust
kts
30/11:30pm 10.0 8.5 9.2 95 0.4 WNW 7 9 4 5 1021.2 - 0.0
30/11:00pm 9.9 9.6 8.5 91 0.7 CALM 0 0 0 0 1021.3 - 0.0
30/10:30pm 10.1 9.8 8.7 91 0.7 N 0 0 0 0 1021.5 - 0.0
30/10:00pm 10.2 9.9 8.6 90 0.8 CALM 0 0 0 0 1021.6 - 0.0
30/09:30pm 11.0 10.9 9.6 91 0.7 CALM 0 0 0 0 1021.6 - 0.0
30/09:00pm 11.3 10.1 9.4 88 0.9 N 6 7 3 4 1021.5 1021.4 0.0
30/08:30pm 11.8 11.8 9.7 87 1.1 CALM 0 0 0 0 1021.4 - 0.0
30/08:00pm 12.4 12.5 10.1 86 1.2 N 0 0 0 0 1021.4 - 0.0
30/07:30pm 14.2 13.3 11.5 84 1.4 N 7 9 4 5 1021.2 - 0.0
30/07:00pm 16.1 15.5 13.6 85 1.4 NE 9 9 5 5 1020.9 - 0.0
30/06:30pm 16.8 16.3 13.9 83 1.6 N 9 11 5 6 1020.6 - 0.0
30/06:00pm 17.3 16.8 13.8 80 2.0 NNE 9 13 5 7 1020.3 1020.2 0.0
30/05:30pm 18.4 17.5 13.7 74 2.7 N 11 13 6 7 1020.0 - 0.0
30/05:00pm 19.4 18.0 13.3 68 3.5 N 13 19 7 10 1019.9 - 0.0
30/04:30pm 20.5 18.6 13.0 62 4.3 N 15 22 8 12 1019.7 - 0.0
30/04:00pm 21.2 18.4 12.6 58 4.9 N 19 26 10 14 1019.5 - 0.0
30/03:30pm 21.9 19.6 13.0 57 5.1 N 17 26 9 14 1019.3 - 0.0
30/03:00pm 21.7 19.0 12.8 57 5.1 N 19 26 10 14 1019.4 1019.3 0.0
30/02:30pm 22.4 19.9 12.4 53 5.7 N 17 24 9 13 1019.6 - 0.0
30/02:00pm 22.7 19.8 12.3 52 5.9 N 19 24 10 13 1020.0 - 0.0
30/01:30pm 22.6 19.6 12.0 51 6.0 N 19 24 10 13 1020.5 - 0.0
30/01:00pm 22.9 19.9 11.9 50 6.2 NNW 19 28 10 15 1020.8 - 0.0
30/12:30pm 22.8 19.7 12.1 51 6.1 N 20 26 11 14 1021.4 - 0.0
30/12:00pm 22.9 20.5 12.5 52 5.9 NNW 17 26 9 14 1022.0 1021.9 0.0
30/11:30am 22.2 19.3 12.2 53 5.6 NNW 19 24 10 13 1022.6 - 0.0
30/11:00am 21.8 19.6 12.1 54 5.5 NNW 15 22 8 12 1023.1 - 0.0
30/10:30am 21.6 18.9 11.6 53 5.6 NNW 17 22 9 12 1023.4 - 0.0
30/10:00am 21.4 19.7 12.5 57 5.0 NNW 13 19 7 10 1023.9 - 0.0
30/09:30am 20.7 21.1 13.6 64 4.1 NNW 4 13 2 7 1024.2 - 0.0
30/09:00am 18.9 20.5 15.0 78 2.3 CALM 0 0 0 0 1024.3 1024.2 0.2
30/08:30am 16.8 18.5 15.2 90 0.9 CALM 0 0 0 0 1024.1 - 0.2
30/08:02am 13.9 14.9 13.3 96 0.3 CALM 0 4 0 2 1024.0 - 0.2
30/08:00am 13.7 14.7 13.1 96 0.3 CALM 0 4 0 2 1024.0 - 0.2
30/07:50am 12.8 13.5 12.3 97 0.3 CALM 0 0 0 0 1023.9 - 0.2
30/07:30am 10.6 10.7 10.1 97 0.3 CALM 0 0 0 0 1023.8 - 0.2
30/07:00am 8.3 7.8 7.9 97 0.2 CALM 0 0 0 0 1023.6 - 0.2
30/06:30am 7.7 7.0 7.1 96 0.3 CALM 0 0 0 0 1023.2 - 0.2
30/06:05am 7.5 6.8 6.8 95 0.3 CALM 0 0 0 0 1023.0 - 0.2
30/06:00am 7.5 6.8 6.8 95 0.3 CALM 0 0 0 0 1022.9 1022.8 0.2
30/05:51am 7.5 6.8 6.8 95 0.3 CALM 0 0 0 0 1022.8 - 0.2
30/05:30am 7.4 6.6 6.5 94 0.4 CALM 0 0 0 0 1022.6 - 0.2
30/05:03am 7.7 7.0 7.0 95 0.3 CALM 0 0 0 0 1022.2 - 0.2
30/05:00am 7.6 6.8 6.7 94 0.4 CALM 0 0 0 0 1022.2 - 0.2
30/04:40am 7.6 6.8 6.7 94 0.4 CALM 0 0 0 0 1022.1 - 0.2
30/04:30am 7.7 7.0 6.8 94 0.4 CALM 0 0 0 0 1022.0 - 0.2
30/04:19am 7.9 7.2 7.0 94 0.4 CALM 0 0 0 0 1022.0 - 0.2
30/04:00am 8.2 7.6 7.4 95 0.4 CALM 0 0 0 0 1021.9 - 0.2
30/03:30am 8.3 7.7 7.4 94 0.4 CALM 0 0 0 0 1021.9 - 0.2
30/03:00am 8.4 7.8 7.2 92 0.6 CALM 0 0 0 0 1021.8 1021.7 0.2
30/02:58am 8.4 7.8 7.2 92 0.6 CALM 0 0 0 0 1021.8 - 0.2
30/02:33am 9.0 8.1 7.9 93 0.5 S 2 6 1 3 1021.8 - 0.2
30/02:30am 9.0 8.1 7.9 93 0.5 SSW 2 6 1 3 1021.8 - 0.2
30/02:09am 9.2 8.7 8.0 92 0.6 CALM 0 0 0 0 1021.8 - 0.2
30/02:00am 9.6 8.9 8.7 94 0.4 SSW 2 6 1 3 1021.8 - 0.2
30/01:30am 10.5 9.2 9.9 96 0.3 SSW 7 9 4 5 1021.8 - 0.2
30/01:27am 10.7 9.4 10.1 96 0.3 SSW 7 11 4 6 1021.8 - 0.2
30/01:00am 10.5 9.2 9.9 96 0.3 SSW 7 9 4 5 1021.7 - 0.2
30/12:48am 10.0 8.5 9.1 94 0.4 SSW 7 9 4 5 1021.7 - 0.2
30/12:30am 10.1 8.8 9.2 94 0.4 WSW 6 11 3 6 1021.9 - 0.2
30/12:00am 10.3 10.0 8.6 89 0.8 CALM 0 0 0 0 1021.8 1021.7 0.2
 
Date/Time
EST
Temp
°C
App
Temp
°C
Dew
Point
Rel
Hum
%
Delta-T
°C
Wind Press
QNH
hPa
Press
MSL
hPa
Rain
since 9 am
mm
Dir
 
Spd
km/h
Gust
km/h
Spd
kts
Gust
kts
29/11:30pm 11.3 11.3 9.9 91 0.7 CALM 0 0 0 0 1021.8 - 0.2
29/11:00pm 12.6 12.7 10.3 86 1.2 CALM 0 0 0 0 1021.8 - 0.2
29/10:30pm 16.5 16.8 14.9 90 0.9 N 7 11 4 6 1021.8 - 0.2
29/10:00pm 16.6 16.6 15.3 92 0.8 N 9 13 5 7 1021.8 - 0.2
29/09:30pm 15.7 15.5 14.6 93 0.6 N 9 13 5 7 1021.8 - 0.2
29/09:00pm 15.7 15.4 14.4 92 0.7 N 9 11 5 6 1021.8 1021.7 0.2
29/08:30pm 16.0 15.6 14.2 89 1.0 N 9 13 5 7 1021.7 - 0.2
29/08:00pm 16.4 16.0 14.2 87 1.3 N 9 11 5 6 1021.6 - 0.2
29/07:30pm 16.1 15.3 14.1 88 1.1 N 11 13 6 7 1021.5 - 0.2
29/07:00pm 14.2 13.3 12.6 90 0.9 N 9 11 5 6 1021.3 - 0.2
29/06:30pm 14.9 14.1 11.7 81 1.7 NNE 7 9 4 5 1021.1 - 0.2
29/06:00pm 16.6 16.2 13.1 80 1.9 NNE 7 9 4 5 1020.7 1020.6 0.2
29/05:30pm 17.9 17.3 13.6 76 2.4 NNE 9 11 5 6 1020.5 - 0.2
29/05:00pm 19.0 17.8 12.7 67 3.5 N 11 15 6 8 1020.4 - 0.2
29/04:30pm 20.1 17.4 11.8 59 4.6 N 17 24 9 13 1020.1 - 0.2
29/04:00pm 20.8 18.2 12.0 57 4.9 N 17 20 9 11 1020.0 - 0.2
29/03:30pm 21.0 17.7 10.8 52 5.6 N 19 26 10 14 1019.8 - 0.2
29/03:00pm 21.8 18.6 11.2 51 5.9 N 19 24 10 13 1019.8 1019.7 0.2
29/02:30pm 21.5 18.1 11.2 52 5.7 N 20 28 11 15 1019.9 - 0.2
29/02:00pm 22.8 20.1 11.8 50 6.2 N 17 24 9 13 1020.2 - 0.2
29/01:30pm 22.8 20.1 11.8 50 6.2 N 17 26 9 14 1020.6 - 0.2
29/01:00pm 22.0 18.6 11.1 50 6.0 N 20 28 11 15 1021.1 - 0.2
29/12:30pm 22.0 18.8 11.4 51 5.9 N 19 28 10 15 1021.5 - 0.2
29/12:00pm 22.3 19.5 11.4 50 6.1 NNW 17 24 9 13 1022.0 1021.9 0.2
29/11:30am 22.0 19.3 11.7 52 5.8 N 17 28 9 15 1022.6 - 0.2
29/11:00am 22.3 20.7 12.8 55 5.4 NNW 13 26 7 14 1023.2 - 0.2
29/10:30am - - - - - NW 15 20 8 11 1023.3 - 0.0
29/10:00am 21.2 19.8 12.3 57 5.0 N 11 20 6 11 1023.6 - 0.0
29/09:30am 20.0 20.0 12.3 61 4.3 NNW 4 9 2 5 1023.9 - 0.0
29/09:00am 17.1 16.5 11.8 71 2.9 SW 6 7 3 4 1024.1 1024.0 0.0
29/08:30am 14.7 13.8 10.7 77 2.1 SSW 6 7 3 4 1024.0 - 0.0
29/08:00am 12.4 11.5 10.6 89 0.9 SW 6 7 3 4 1023.8 - 0.0
29/07:30am 9.5 9.2 8.6 94 0.4 CALM 0 0 0 0 1023.7 - 0.0
29/07:00am 7.0 6.2 6.3 95 0.3 CALM 0 0 0 0 1023.3 - 0.0
29/06:30am 5.8 4.7 4.9 94 0.4 CALM 0 0 0 0 1023.0 - 0.0
29/06:00am 5.9 4.8 5.0 94 0.4 CALM 0 0 0 0 1022.6 1022.5 0.0
29/05:30am 6.2 5.1 5.3 94 0.4 CALM 0 0 0 0 1022.2 - 0.0
29/05:00am 6.2 5.1 5.3 94 0.4 CALM 0 0 0 0 1021.9 - 0.0
29/04:30am 6.5 5.5 5.6 94 0.4 CALM 0 0 0 0 1021.8 - 0.0
29/04:00am 6.5 5.5 5.5 93 0.4 CALM 0 0 0 0 1021.7 - 0.0
29/03:30am 6.8 5.8 5.7 93 0.5 CALM 0 0 0 0 1021.7 - 0.0
29/03:00am 7.2 5.2 6.3 94 0.4 SSW 6 7 3 4 1021.7 1021.6 0.0
29/02:30am 7.3 6.5 6.4 94 0.4 CALM 0 6 0 3 1021.7 - 0.0
29/02:00am 7.8 7.1 6.9 94 0.4 CALM 0 6 0 3 1021.8 - 0.0
29/01:30am 7.9 5.5 7.0 94 0.4 S 9 11 5 6 1022.0 - 0.0
29/01:00am 7.6 6.1 6.7 94 0.4 SSW 4 7 2 4 1022.2 - 0.0
29/12:30am 7.8 5.4 6.9 94 0.4 SSW 9 11 5 6 1022.4 - 0.0
29/12:00am 7.6 5.5 6.5 93 0.5 SSW 7 7 4 4 1022.2 1022.1 0.0
 
Date/Time
EST
Temp
°C
App
Temp
°C
Dew
Point
Rel
Hum
%
Delta-T
°C
Wind Press
QNH
hPa
Press
MSL
hPa
Rain
since 9 am
mm
Dir
 
Spd
km/h
Gust
km/h
Spd
kts
Gust
kts
28/11:30pm 7.8 7.0 6.7 93 0.5 CALM 0 0 0 0 1022.3 - 0.0
28/11:00pm 7.9 7.1 6.7 92 0.6 CALM 0 0 0 0 1022.4 - 0.0
28/10:30pm 8.3 7.6 7.1 92 0.6 CALM 0 0 0 0 1022.5 - 0.0
28/10:00pm 8.7 8.1 7.5 92 0.6 CALM 0 0 0 0 1022.4 - 0.0
28/09:30pm 8.8 8.2 7.4 91 0.7 CALM 0 0 0 0 1022.4 - 0.0
28/09:00pm 9.2 8.6 7.5 89 0.8 CALM 0 0 0 0 1022.1 1022.0 0.0
28/08:30pm 9.7 9.2 8.0 89 0.8 CALM 0 0 0 0 1022.2 - 0.0
28/08:00pm 9.9 9.4 7.8 87 1.0 CALM 0 0 0 0 1021.9 - 0.0
28/07:30pm 10.5 10.1 8.1 85 1.2 CALM 0 0 0 0 1021.7 - 0.0
28/07:00pm 11.2 10.8 8.2 82 1.5 CALM 0 0 0 0 1021.6 - 0.0
28/06:30pm 12.4 12.1 8.5 77 1.9 CALM 0 0 0 0 1021.3 - 0.0
28/06:00pm 14.5 12.5 8.5 67 3.0 ENE 9 11 5 6 1021.0 1020.9 0.0
28/05:30pm 15.8 15.4 8.1 60 3.9 CALM 0 0 0 0 1020.8 - 0.0
28/05:00pm 19.6 17.5 6.7 43 6.5 N 7 9 4 5 1020.6 - 0.0
28/04:30pm 21.0 18.1 6.5 39 7.3 NNE 11 17 6 9 1020.4 - 0.0
28/04:00pm 21.4 17.8 6.9 39 7.4 ENE 15 20 8 11 1020.3 - 0.0
28/03:30pm 22.0 18.2 5.8 35 8.1 NNE 15 19 8 10 1020.3 - 0.0
28/03:00pm 22.3 18.4 5.3 33 8.4 N 15 19 8 10 1020.3 1020.2 0.0
28/02:30pm 22.3 17.7 5.7 34 8.3 NNE 19 24 10 13 1020.5 - 0.0
28/02:00pm 22.6 18.3 6.8 36 8.1 N 19 22 10 12 1020.9 - 0.0
28/01:30pm 23.0 19.2 7.5 37 8.1 N 17 24 9 13 1021.3 - 0.0
28/01:00pm 22.9 18.2 6.2 34 8.5 N 20 28 11 15 1021.7 - 0.0
28/12:30pm 22.4 19.4 5.8 34 8.4 NNE 11 20 6 11 1022.2 - 0.0
28/12:00pm 22.2 20.3 9.0 43 7.0 ENE 9 17 5 9 1022.7 1022.6 0.0
28/11:30am 21.7 20.4 9.3 45 6.6 WNW 6 9 3 5 1023.3 - 0.0

Other Formats:

Comma delimited format used in spreadsheet applications
http://www.bom.gov.au/fwo/IDQ60801/IDQ60801.95565.axf

JavaScript Object Notation format (JSON) in row-major order
http://www.bom.gov.au/fwo/IDQ60801/IDQ60801.95565.json